createdAt,value
2018-06-12T00:00:41.106Z,32.96
2018-06-12T00:01:41.114Z,33.45
2018-06-12T00:02:41.123Z,32.71
2018-06-12T00:03:41.128Z,32.71
2018-06-12T00:04:41.131Z,37.11
2018-06-12T00:05:41.138Z,35.16
2018-06-12T00:06:41.137Z,35.40
2018-06-12T00:07:41.144Z,57.37
2018-06-12T00:08:41.149Z,33.94
2018-06-12T00:09:41.152Z,32.71
2018-06-12T00:10:41.160Z,33.20
2018-06-12T00:11:41.166Z,46.14
2018-06-12T00:12:41.172Z,40.77
2018-06-12T00:13:41.171Z,41.26
2018-06-12T00:14:41.175Z,35.16
2018-06-12T00:15:41.191Z,37.11
2018-06-12T00:16:41.192Z,32.71
2018-06-12T00:17:41.211Z,33.20
2018-06-12T00:18:41.200Z,46.14
2018-06-12T00:19:41.206Z,35.89
2018-06-12T00:20:41.213Z,34.91
2018-06-12T00:21:41.216Z,51.27
2018-06-12T00:22:41.226Z,32.96
2018-06-12T00:23:41.231Z,38.57
2018-06-12T00:24:41.235Z,36.62
2018-06-12T00:25:41.239Z,32.47
2018-06-12T00:26:41.249Z,38.57
2018-06-12T00:27:41.247Z,36.38
2018-06-12T00:28:41.254Z,32.71
2018-06-12T00:29:41.269Z,34.42
2018-06-12T00:30:41.279Z,42.48
2018-06-12T00:31:41.280Z,32.96
2018-06-12T00:32:41.286Z,34.42
2018-06-12T00:33:41.283Z,32.71
2018-06-12T00:34:41.289Z,33.20
2018-06-12T00:35:41.293Z,34.18
2018-06-12T00:36:41.303Z,33.45
2018-06-12T00:37:41.308Z,34.18
2018-06-12T00:38:41.312Z,32.96
2018-06-12T00:39:41.318Z,34.18
2018-06-12T00:40:41.321Z,34.67
2018-06-12T00:41:41.328Z,35.16
2018-06-12T00:42:41.337Z,69.34
2018-06-12T00:43:41.342Z,32.96
2018-06-12T00:44:41.346Z,31.98
2018-06-12T00:45:41.354Z,33.69
2018-06-12T00:46:41.359Z,33.20
2018-06-12T00:47:41.367Z,39.55
2018-06-12T00:48:41.375Z,33.20
2018-06-12T00:49:41.379Z,34.91
2018-06-12T00:50:41.392Z,51.76
2018-06-12T00:51:41.406Z,32.47
2018-06-12T00:52:41.405Z,32.71
2018-06-12T00:53:41.397Z,32.96
2018-06-12T00:54:41.420Z,33.45
2018-06-12T00:55:41.400Z,38.09
2018-06-12T00:56:41.419Z,33.94
2018-06-12T00:57:41.417Z,34.91
2018-06-12T00:58:41.422Z,34.18
2018-06-12T00:59:41.425Z,33.20
2018-06-12T01:00:41.431Z,33.45
2018-06-12T01:01:41.436Z,32.47
2018-06-12T01:02:41.442Z,32.71
2018-06-12T01:03:41.447Z,32.47
2018-06-12T01:04:41.453Z,34.18
2018-06-12T01:05:41.485Z,32.71
2018-06-12T01:06:41.461Z,33.20
2018-06-12T01:07:41.472Z,32.71
2018-06-12T01:08:41.478Z,55.91
2018-06-12T01:09:41.485Z,32.96
2018-06-12T01:10:41.485Z,32.71
2018-06-12T01:11:41.517Z,32.23
2018-06-12T01:12:41.497Z,32.47
2018-06-12T01:13:41.499Z,31.74
2018-06-12T01:14:41.521Z,33.94
2018-06-12T01:15:41.511Z,32.23
2018-06-12T01:16:41.520Z,32.47
2018-06-12T01:17:41.527Z,32.96
2018-06-12T01:18:41.533Z,32.23
2018-06-12T01:19:41.539Z,32.23
2018-06-12T01:20:41.546Z,33.69
2018-06-12T01:21:41.558Z,33.20
2018-06-12T01:22:41.556Z,32.47
2018-06-12T01:23:41.562Z,33.20
2018-06-12T01:24:41.567Z,33.94
2018-06-12T01:25:41.575Z,32.71
2018-06-12T01:26:41.578Z,31.98
2018-06-12T01:27:41.584Z,34.67
2018-06-12T01:28:41.610Z,33.20
2018-06-12T01:29:41.618Z,34.18
2018-06-12T01:30:41.604Z,32.71
2018-06-12T01:31:41.611Z,34.67
2018-06-12T01:32:41.616Z,32.71
2018-06-12T01:33:41.614Z,31.49
2018-06-12T01:34:41.627Z,35.89
2018-06-12T01:35:41.634Z,36.13
2018-06-12T01:36:41.636Z,31.98
2018-06-12T01:37:41.645Z,32.96
2018-06-12T01:38:41.651Z,33.94
2018-06-12T01:39:41.657Z,33.45
2018-06-12T01:40:41.670Z,32.23
2018-06-12T01:41:41.668Z,31.98
2018-06-12T01:42:41.675Z,31.74
2018-06-12T01:43:41.682Z,31.74
2018-06-12T01:44:41.693Z,39.55
2018-06-12T01:45:41.702Z,33.94
2018-06-12T01:46:41.698Z,33.20
2018-06-12T01:47:41.704Z,32.47
2018-06-12T01:48:41.717Z,31.49
2018-06-12T01:49:41.729Z,31.98
2018-06-12T01:50:41.722Z,31.98
2018-06-12T01:51:41.729Z,36.13
2018-06-12T01:52:41.736Z,33.69
2018-06-12T01:53:41.743Z,32.47
2018-06-12T01:54:41.748Z,31.98
2018-06-12T01:55:41.756Z,34.91
2018-06-12T01:56:41.764Z,32.23
2018-06-12T01:57:41.764Z,31.74
2018-06-12T01:58:41.772Z,32.71
2018-06-12T01:59:41.779Z,32.47
2018-06-12T02:00:41.786Z,34.91
2018-06-12T02:01:41.794Z,44.68
2018-06-12T02:02:41.793Z,32.96
2018-06-12T02:03:41.806Z,32.47
2018-06-12T02:04:41.812Z,31.98
2018-06-12T02:05:41.813Z,32.47
2018-06-12T02:06:41.834Z,34.18
2018-06-12T02:07:41.826Z,35.16
2018-06-12T02:08:41.839Z,32.47
2018-06-12T02:09:41.842Z,32.96
2018-06-12T02:10:41.848Z,33.45
2018-06-12T02:11:41.851Z,34.91
2018-06-12T02:12:41.857Z,34.91
2018-06-12T02:13:41.863Z,41.02
2018-06-12T02:14:41.871Z,34.91
2018-06-12T02:15:41.877Z,36.62
2018-06-12T02:16:41.883Z,38.82
2018-06-12T02:17:41.901Z,43.95
2018-06-12T02:18:41.895Z,47.61
2018-06-12T02:19:41.901Z,36.87
2018-06-12T02:20:41.906Z,44.92
2018-06-12T02:21:41.922Z,36.38
2018-06-12T02:22:41.915Z,38.82
2018-06-12T02:23:41.937Z,37.60
2018-06-12T02:24:41.933Z,36.13
2018-06-12T02:25:41.942Z,46.88
2018-06-12T02:26:41.947Z,48.10
2018-06-12T02:27:41.954Z,38.57
2018-06-12T02:28:41.958Z,39.06
2018-06-12T02:29:41.962Z,41.26
2018-06-12T02:30:41.974Z,38.57
2018-06-12T02:31:41.978Z,36.13
2018-06-12T02:32:42.015Z,40.53
2018-06-12T02:33:41.993Z,39.06
2018-06-12T02:34:42.000Z,38.57
2018-06-12T02:35:42.007Z,38.82
2018-06-12T02:36:42.013Z,44.68
2018-06-12T02:37:42.022Z,46.63
2018-06-12T02:38:42.027Z,45.41
2018-06-12T02:39:42.034Z,42.97
2018-06-12T02:40:42.047Z,40.53
2018-06-12T02:41:42.047Z,39.31
2018-06-12T02:42:42.056Z,59.33
2018-06-12T02:43:42.063Z,39.31
2018-06-12T02:44:42.113Z,38.57
2018-06-12T02:45:42.080Z,40.04
2018-06-12T02:46:42.083Z,43.95
2018-06-12T02:47:42.090Z,38.82
2018-06-12T02:48:42.116Z,46.39
2018-06-12T02:49:42.106Z,43.95
2018-06-12T02:50:42.126Z,41.99
2018-06-12T02:51:42.133Z,42.48
2018-06-12T02:52:42.135Z,50.54
2018-06-12T02:53:42.143Z,40.04
2018-06-12T02:54:42.148Z,48.34
2018-06-12T02:55:42.162Z,42.72
2018-06-12T02:56:42.166Z,41.50
2018-06-12T02:57:42.173Z,49.56
2018-06-12T02:58:42.181Z,37.11
2018-06-12T02:59:42.188Z,45.17
2018-06-12T03:00:42.194Z,39.79
2018-06-12T03:01:42.199Z,36.87
2018-06-12T03:02:42.216Z,37.11
2018-06-12T03:03:42.216Z,43.70
2018-06-12T03:04:42.226Z,46.14
2018-06-12T03:05:42.229Z,49.32
2018-06-12T03:06:42.236Z,42.24
2018-06-12T03:07:42.248Z,37.11
2018-06-12T03:08:42.251Z,41.26
2018-06-12T03:09:42.263Z,48.34
2018-06-12T03:10:42.264Z,36.62
2018-06-12T03:11:42.276Z,38.09
2018-06-12T03:12:42.277Z,41.02
2018-06-12T03:13:42.283Z,37.11
2018-06-12T03:14:42.292Z,45.17
2018-06-12T03:15:42.299Z,39.06
2018-06-12T03:16:42.301Z,45.41
2018-06-12T03:17:42.306Z,44.43
2018-06-12T03:18:42.314Z,49.32
2018-06-12T03:19:42.320Z,42.24
2018-06-12T03:20:42.328Z,35.16
2018-06-12T03:21:42.336Z,36.62
2018-06-12T03:22:42.339Z,39.31
2018-06-12T03:23:42.364Z,37.60
2018-06-12T03:24:42.351Z,37.35
2018-06-12T03:25:42.386Z,44.68
2018-06-12T03:26:42.463Z,40.28
2018-06-12T03:27:42.589Z,39.79
2018-06-12T03:28:42.627Z,42.24
2018-06-12T03:29:42.376Z,50.29
2018-06-12T03:30:42.382Z,49.56
2018-06-12T03:31:42.388Z,47.12
2018-06-12T03:32:42.396Z,44.19
2018-06-12T03:33:42.401Z,37.84
2018-06-12T03:34:42.407Z,42.24
2018-06-12T03:35:42.414Z,43.21
2018-06-12T03:36:42.419Z,37.11
2018-06-12T03:37:42.425Z,55.42
2018-06-12T03:38:42.428Z,45.41
2018-06-12T03:39:42.438Z,58.84
2018-06-12T03:40:42.440Z,43.95
2018-06-12T03:41:42.444Z,40.28
2018-06-12T03:42:42.461Z,37.84
2018-06-12T03:43:42.455Z,40.77
2018-06-12T03:44:42.466Z,38.82
2018-06-12T03:45:42.471Z,40.53
2018-06-12T03:46:42.470Z,40.04
2018-06-12T03:47:42.483Z,47.61
2018-06-12T03:48:42.502Z,49.80
2018-06-12T03:49:42.492Z,43.46
2018-06-12T03:50:42.494Z,38.33
2018-06-12T03:51:42.500Z,42.97
2018-06-12T03:52:42.507Z,41.26
2018-06-12T03:53:42.529Z,41.26
2018-06-12T03:54:42.514Z,35.89
2018-06-12T03:55:42.520Z,39.06
2018-06-12T03:56:42.526Z,55.91
2018-06-12T03:57:42.533Z,38.09
2018-06-12T03:58:42.534Z,44.43
2018-06-12T03:59:42.544Z,39.06
2018-06-12T04:00:42.547Z,43.21
2018-06-12T04:01:42.551Z,49.80
2018-06-12T04:02:42.558Z,44.19
2018-06-12T04:03:42.568Z,34.42
2018-06-12T04:04:42.580Z,36.87
2018-06-12T04:05:42.580Z,44.92
2018-06-12T04:06:42.588Z,46.88
2018-06-12T04:07:42.645Z,41.75
2018-06-12T04:08:42.607Z,44.19
2018-06-12T04:09:42.620Z,39.79
2018-06-12T04:10:42.624Z,43.95
2018-06-12T04:11:42.624Z,48.34
2018-06-12T04:12:42.630Z,38.33
2018-06-12T04:13:42.639Z,61.04
2018-06-12T04:14:42.716Z,48.83
2018-06-12T04:15:42.636Z,49.56
2018-06-12T04:16:42.658Z,51.27
2018-06-12T04:17:42.650Z,39.55
2018-06-12T04:18:42.667Z,40.77
2018-06-12T04:19:42.671Z,42.97
2018-06-12T04:20:42.675Z,42.97
2018-06-12T04:21:42.675Z,37.11
2018-06-12T04:22:42.682Z,38.82
2018-06-12T04:23:42.688Z,43.21
2018-06-12T04:24:42.704Z,48.10
2018-06-12T04:25:42.698Z,46.14
2018-06-12T04:26:42.704Z,56.88
2018-06-12T04:27:42.713Z,43.21
2018-06-12T04:28:42.716Z,41.50
2018-06-12T04:29:42.720Z,56.15
2018-06-12T04:30:42.725Z,43.46
2018-06-12T04:31:42.733Z,42.97
2018-06-12T04:32:42.736Z,42.48
2018-06-12T04:33:42.734Z,62.74
2018-06-12T04:34:42.749Z,46.88
2018-06-12T04:35:42.747Z,39.55
2018-06-12T04:36:42.756Z,42.97
2018-06-12T04:37:42.760Z,51.51
2018-06-12T04:38:42.766Z,51.27
2018-06-12T04:39:42.777Z,55.18
2018-06-12T04:40:42.781Z,56.64
2018-06-12T04:41:42.786Z,41.75
2018-06-12T04:42:42.790Z,38.57
2018-06-12T04:43:42.792Z,52.73
2018-06-12T04:44:42.797Z,44.68
2018-06-12T04:45:42.800Z,42.97
2018-06-12T04:46:42.804Z,42.72
2018-06-12T04:47:42.809Z,56.40
2018-06-12T04:48:42.820Z,44.19
2018-06-12T04:49:42.819Z,45.41
2018-06-12T04:50:42.827Z,41.99
2018-06-12T04:51:43.095Z,59.33
2018-06-12T04:52:42.841Z,41.99
2018-06-12T04:53:42.843Z,53.47
2018-06-12T04:54:42.887Z,42.24
2018-06-12T04:55:42.856Z,44.68
2018-06-12T04:56:42.865Z,42.97
2018-06-12T04:57:42.868Z,41.75
2018-06-12T04:58:42.878Z,56.40
2018-06-12T04:59:42.906Z,41.26
2018-06-12T05:00:42.884Z,41.26
2018-06-12T05:01:42.886Z,40.04
2018-06-12T05:02:42.904Z,49.07
2018-06-12T05:03:42.898Z,42.48
2018-06-12T05:04:42.904Z,42.24
2018-06-12T05:05:42.904Z,41.50
2018-06-12T05:06:42.911Z,49.80
2018-06-12T05:07:42.924Z,49.07
2018-06-12T05:08:42.934Z,45.65
2018-06-12T05:09:42.926Z,42.97
2018-06-12T05:10:42.935Z,60.06
2018-06-12T05:11:42.942Z,58.11
2018-06-12T05:12:43.013Z,57.86
2018-06-12T05:13:42.953Z,57.86
2018-06-12T05:14:42.963Z,51.76
2018-06-12T05:15:42.965Z,51.76
2018-06-12T05:16:42.972Z,57.86
2018-06-12T05:17:43.008Z,58.59
2018-06-12T05:18:42.993Z,62.50
2018-06-12T05:19:43.041Z,56.40
2018-06-12T05:20:42.999Z,61.77
2018-06-12T05:21:42.997Z,62.74
2018-06-12T05:22:43.004Z,55.42
2018-06-12T05:23:43.011Z,59.57
2018-06-12T05:24:43.021Z,57.37
2018-06-12T05:25:43.017Z,61.77
2018-06-12T05:26:43.029Z,62.99
2018-06-12T05:27:43.035Z,54.20
2018-06-12T05:28:43.042Z,50.54
2018-06-12T05:29:43.040Z,55.18
2018-06-12T05:30:43.053Z,59.81
2018-06-12T05:31:43.078Z,61.77
2018-06-12T05:32:43.123Z,61.04
2018-06-12T05:33:43.376Z,58.59
2018-06-12T05:34:43.081Z,62.74
2018-06-12T05:35:43.107Z,66.89
2018-06-12T05:36:43.094Z,62.01
2018-06-12T05:37:43.099Z,59.81
2018-06-12T05:38:43.107Z,64.21
2018-06-12T05:39:43.108Z,59.08
2018-06-12T05:40:43.116Z,56.64
2018-06-12T05:41:43.126Z,68.60
2018-06-12T05:42:43.129Z,56.40
2018-06-12T05:43:43.139Z,57.86
2018-06-12T05:44:43.147Z,54.69
2018-06-12T05:45:43.148Z,59.33
2018-06-12T05:46:43.205Z,57.13
2018-06-12T05:47:43.168Z,55.66
2018-06-12T05:48:43.170Z,84.23
2018-06-12T05:49:43.177Z,68.12
2018-06-12T05:50:43.187Z,50.29
2018-06-12T05:51:43.194Z,55.42
2018-06-12T05:52:43.201Z,53.47
2018-06-12T05:53:43.215Z,47.36
2018-06-12T05:54:43.200Z,49.07
2018-06-12T05:55:43.250Z,49.80
2018-06-12T05:56:43.217Z,61.77
2018-06-12T05:57:43.218Z,46.14
2018-06-12T05:58:43.226Z,49.32
2018-06-12T05:59:43.234Z,52.49
2018-06-12T06:00:43.245Z,55.66
2018-06-12T06:01:43.244Z,47.61
2018-06-12T06:02:43.257Z,59.81
2018-06-12T06:03:43.263Z,49.07
2018-06-12T06:04:43.268Z,48.58
2018-06-12T06:05:43.276Z,60.55
2018-06-12T06:06:43.277Z,52.49
2018-06-12T06:07:43.284Z,53.71
2018-06-12T06:08:43.292Z,41.99
2018-06-12T06:09:43.301Z,51.27
2018-06-12T06:10:43.392Z,48.83
2018-06-12T06:11:43.312Z,50.54
2018-06-12T06:12:43.318Z,48.83
2018-06-12T06:13:43.325Z,48.83
2018-06-12T06:14:43.332Z,44.43
2018-06-12T06:15:43.339Z,48.10
2018-06-12T06:16:43.360Z,49.56
2018-06-12T06:17:43.351Z,42.48
2018-06-12T06:18:43.374Z,42.97
2018-06-12T06:19:43.366Z,53.47
2018-06-12T06:20:43.378Z,51.03
2018-06-12T06:21:43.385Z,43.46
2018-06-12T06:22:43.450Z,43.46
2018-06-12T06:23:43.417Z,45.65
2018-06-12T06:24:43.403Z,51.03
2018-06-12T06:25:43.407Z,48.83
2018-06-12T06:26:43.420Z,44.19
2018-06-12T06:27:43.447Z,54.93
2018-06-12T06:28:43.435Z,44.19
2018-06-12T06:29:43.727Z,70.31
2018-06-12T06:30:43.453Z,47.61
2018-06-12T06:31:43.459Z,50.78
2018-06-12T06:32:43.469Z,49.07
2018-06-12T06:33:43.476Z,52.25
2018-06-12T06:34:43.481Z,61.28
2018-06-12T06:35:43.505Z,43.70
2018-06-12T06:36:43.500Z,51.03
2018-06-12T06:37:44.217Z,55.42
2018-06-12T06:38:43.635Z,44.43
2018-06-12T06:39:43.525Z,46.39
2018-06-12T06:40:43.533Z,59.57
2018-06-12T06:41:43.703Z,58.11
2018-06-12T06:42:43.550Z,47.61
2018-06-12T06:43:43.564Z,42.72
2018-06-12T06:44:43.579Z,46.63
2018-06-12T06:45:43.585Z,49.80
2018-06-12T06:46:43.591Z,59.57
2018-06-12T06:47:43.599Z,55.66
2018-06-12T06:48:43.605Z,55.91
2018-06-12T06:49:43.610Z,51.03
2018-06-12T06:50:43.622Z,52.25
2018-06-12T06:51:43.629Z,47.85
2018-06-12T06:52:43.642Z,61.28
2018-06-12T06:53:43.697Z,56.40
2018-06-12T06:54:43.648Z,59.08
2018-06-12T06:55:43.670Z,62.99
2018-06-12T06:56:43.679Z,45.90
2018-06-12T06:57:43.701Z,53.71
2018-06-12T06:58:43.728Z,55.91
2018-06-12T06:59:43.693Z,57.37
2018-06-12T07:00:43.707Z,41.02
2018-06-12T07:01:43.715Z,57.62
2018-06-12T07:02:43.725Z,49.80
2018-06-12T07:03:43.735Z,53.47
2018-06-12T07:04:43.741Z,49.80
2018-06-12T07:05:43.756Z,47.12
2018-06-12T07:06:43.761Z,48.10
2018-06-12T07:07:43.775Z,67.63
2018-06-12T07:08:43.775Z,62.26
2018-06-12T07:09:43.782Z,52.25
2018-06-12T07:10:43.829Z,58.84
2018-06-12T07:11:43.839Z,51.27
2018-06-12T07:12:43.852Z,53.47
2018-06-12T07:13:43.829Z,45.65
2018-06-12T07:14:43.834Z,53.22
2018-06-12T07:15:43.849Z,44.43
2018-06-12T07:16:43.874Z,41.26
2018-06-12T07:17:43.867Z,56.15
2018-06-12T07:18:43.860Z,50.78
2018-06-12T07:19:43.869Z,56.40
2018-06-12T07:20:43.896Z,56.15
2018-06-12T07:21:43.915Z,58.84
2018-06-12T07:22:43.914Z,54.69
2018-06-12T07:23:43.946Z,55.91
2018-06-12T07:24:43.915Z,50.78
2018-06-12T07:25:43.921Z,47.12
2018-06-12T07:26:43.942Z,47.61
2018-06-12T07:27:43.985Z,52.98
2018-06-12T07:28:43.962Z,53.96
2018-06-12T07:29:43.991Z,57.37
2018-06-12T07:30:44.014Z,54.44
2018-06-12T07:31:43.966Z,54.69
2018-06-12T07:32:43.975Z,58.11
2018-06-12T07:33:43.984Z,51.76
2018-06-12T07:34:43.991Z,46.14
2018-06-12T07:35:44.005Z,54.69
2018-06-12T07:36:44.011Z,51.03
2018-06-12T07:37:44.079Z,49.56
2018-06-12T07:38:44.048Z,45.90
2018-06-12T07:39:44.040Z,52.73
2018-06-12T07:40:44.059Z,54.44
2018-06-12T07:41:44.056Z,44.43
2018-06-12T07:42:44.072Z,43.70
2018-06-12T07:43:44.078Z,49.07
2018-06-12T07:44:44.088Z,46.88
2018-06-12T07:45:44.095Z,49.32
2018-06-12T07:46:44.105Z,47.85
2018-06-12T07:47:44.127Z,53.22
2018-06-12T07:48:44.133Z,47.85
2018-06-12T07:49:44.153Z,63.23
2018-06-12T07:50:44.149Z,47.85
2018-06-12T07:51:44.163Z,53.22
2018-06-12T07:52:44.170Z,51.03
2018-06-12T07:53:44.171Z,54.69
2018-06-12T07:54:44.188Z,46.39
2018-06-12T07:55:44.201Z,48.58
2018-06-12T07:56:44.219Z,39.79
2018-06-12T07:57:44.218Z,42.72
2018-06-12T07:58:44.277Z,57.37
2018-06-12T07:59:44.238Z,50.78
2018-06-12T08:00:44.250Z,57.86
2018-06-12T08:01:44.262Z,44.92
2018-06-12T08:02:44.269Z,40.77
2018-06-12T08:03:44.284Z,48.83
2018-06-12T08:04:44.289Z,49.07
2018-06-12T08:05:44.306Z,55.66
2018-06-12T08:06:44.307Z,48.10
2018-06-12T08:07:44.332Z,45.17
2018-06-12T08:08:44.336Z,65.19
2018-06-12T08:10:30.714Z,56.88
2018-06-12T08:11:30.729Z,59.08
2018-06-12T08:13:24.791Z,57.86
2018-06-12T08:14:24.795Z,54.44
2018-06-12T08:16:18.897Z,50.54
2018-06-12T08:17:18.878Z,50.54
2018-06-12T08:19:12.966Z,65.19
2018-06-12T08:20:12.976Z,46.39
2018-06-12T08:22:07.101Z,58.59
2018-06-12T08:23:07.066Z,52.98
2018-06-12T08:25:01.174Z,54.20
2018-06-12T08:26:01.144Z,53.47
2018-06-12T08:27:55.727Z,58.84
2018-06-12T08:28:55.761Z,47.61
2018-06-12T08:30:49.814Z,42.97
2018-06-12T08:31:49.826Z,41.50
2018-06-12T08:33:43.905Z,60.30
2018-06-12T08:34:43.912Z,59.57
2018-06-12T08:36:38.015Z,63.96
2018-06-12T08:37:38.007Z,52.49
2018-06-12T08:39:32.166Z,63.48
2018-06-12T08:40:32.174Z,60.55
2018-06-12T08:42:27.278Z,52.00
2018-06-12T08:43:27.255Z,49.32
2018-06-12T08:45:21.374Z,45.41
2018-06-12T08:46:21.403Z,40.77
2018-06-12T08:48:15.441Z,47.12
2018-06-12T08:49:15.438Z,46.88
2018-06-12T08:51:09.575Z,42.24
2018-06-12T08:52:09.531Z,55.91
2018-06-12T08:54:03.701Z,52.49
2018-06-12T08:55:03.638Z,48.83
2018-06-12T08:56:57.748Z,61.04
2018-06-12T08:57:57.732Z,47.61
2018-06-12T08:59:51.821Z,46.14
2018-06-12T09:00:51.867Z,43.70
2018-06-12T09:02:45.942Z,40.04
2018-06-12T09:03:45.915Z,54.69
2018-06-12T09:05:40.007Z,42.24
2018-06-12T09:06:40.015Z,53.71
2018-06-12T09:08:34.121Z,53.22
2018-06-12T09:09:34.098Z,52.00
2018-06-12T09:11:28.211Z,47.12
2018-06-12T09:12:28.194Z,49.32
2018-06-12T09:14:22.287Z,41.99
2018-06-12T09:15:22.279Z,46.63
2018-06-12T09:17:16.387Z,43.21
2018-06-12T09:18:16.367Z,38.57
2018-06-12T09:20:10.456Z,45.17
2018-06-12T09:21:10.472Z,62.26
2018-06-12T09:23:04.562Z,41.50
2018-06-12T09:24:04.554Z,53.96
2018-06-12T09:25:59.620Z,51.76
2018-06-12T09:26:59.624Z,52.25
2018-06-12T09:28:53.738Z,53.71
2018-06-12T09:29:53.721Z,53.47
2018-06-12T09:31:47.809Z,51.03
2018-06-12T09:32:47.841Z,49.56
2018-06-12T09:34:42.915Z,49.07
2018-06-12T09:35:42.894Z,45.90
2018-06-12T09:37:36.986Z,52.73
2018-06-12T09:38:36.986Z,62.74
2018-06-12T09:40:31.548Z,48.83
2018-06-12T09:41:31.556Z,42.72
2018-06-12T09:43:25.651Z,47.12
2018-06-12T09:44:25.636Z,45.17
2018-06-12T09:46:19.721Z,55.66
2018-06-12T09:47:19.725Z,55.42
2018-06-12T09:49:13.832Z,66.16
2018-06-12T09:50:13.814Z,55.18
2018-06-12T09:52:08.759Z,52.49
2018-06-12T09:53:08.772Z,49.56
2018-06-12T09:55:02.856Z,53.71
2018-06-12T09:56:02.847Z,56.64
2018-06-12T09:57:56.931Z,43.70
2018-06-12T09:58:56.916Z,42.97
2018-06-12T10:00:50.994Z,53.47
2018-06-12T10:01:50.997Z,46.39
2018-06-12T10:03:45.103Z,50.78
2018-06-12T10:04:45.084Z,51.51
2018-06-12T10:06:39.156Z,53.71
2018-06-12T10:07:39.163Z,51.27
2018-06-12T10:09:33.265Z,54.93
2018-06-12T10:10:33.239Z,54.93
2018-06-12T10:12:27.381Z,52.49
2018-06-12T10:13:27.422Z,58.11
2018-06-12T10:15:21.581Z,53.96
2018-06-12T10:16:21.700Z,56.15
2018-06-12T10:18:15.682Z,48.34
2018-06-12T10:19:15.675Z,54.93
2018-06-12T10:21:09.752Z,52.49
2018-06-12T10:22:09.755Z,52.25
2018-06-12T10:24:03.896Z,48.10
2018-06-12T10:25:03.897Z,49.32
2018-06-12T10:26:57.963Z,49.56
2018-06-12T10:27:57.962Z,50.54
2018-06-12T10:29:52.066Z,52.98
2018-06-12T10:30:52.047Z,49.56
2018-06-12T10:32:46.143Z,43.46
2018-06-12T10:33:46.156Z,38.82
2018-06-12T10:35:40.252Z,46.63
2018-06-12T10:36:40.315Z,56.64
2018-06-12T10:38:34.351Z,63.48
2018-06-12T10:39:34.330Z,56.64
2018-06-12T10:41:28.436Z,56.40
2018-06-12T10:42:28.452Z,53.96
2018-06-12T10:44:22.578Z,62.26
2018-06-12T10:45:22.541Z,51.76
2018-06-12T10:47:16.658Z,59.57
2018-06-12T10:48:16.646Z,55.66
2018-06-12T10:50:10.763Z,50.54
2018-06-12T10:51:10.745Z,58.59
2018-06-12T10:53:04.869Z,59.57
2018-06-12T10:54:04.882Z,50.78
2018-06-12T10:55:58.972Z,57.13
2018-06-12T10:56:58.977Z,50.29
2018-06-12T10:58:53.068Z,48.34
2018-06-12T10:59:53.073Z,51.51
2018-06-12T11:01:47.181Z,48.83
2018-06-12T11:02:47.161Z,60.79
2018-06-12T11:04:41.278Z,55.42
2018-06-12T11:05:41.264Z,56.15
2018-06-12T11:07:35.351Z,50.05
2018-06-12T11:08:35.356Z,57.37
2018-06-12T11:10:30.462Z,40.77
2018-06-12T11:11:30.427Z,38.09
2018-06-12T11:13:24.517Z,42.24
2018-06-12T11:14:24.536Z,50.29
2018-06-12T11:16:18.628Z,42.97
2018-06-12T11:17:18.622Z,36.87
2018-06-12T11:19:12.717Z,36.87
2018-06-12T11:20:12.712Z,54.44
2018-06-12T11:22:06.819Z,55.91
2018-06-12T11:23:06.795Z,38.09
2018-06-12T11:25:00.910Z,37.11
2018-06-12T11:26:00.887Z,44.92
2018-06-12T11:27:55.072Z,39.79
2018-06-12T11:28:55.072Z,57.62
2018-06-12T11:30:49.229Z,52.49
2018-06-12T11:31:49.200Z,42.48
2018-06-12T11:33:43.284Z,39.79
2018-06-12T11:34:43.287Z,58.84
2018-06-12T11:36:37.394Z,43.46
2018-06-12T11:37:37.381Z,42.24
2018-06-12T11:39:31.467Z,46.88
2018-06-12T11:40:31.469Z,45.17
2018-06-12T11:42:25.609Z,48.58
2018-06-12T11:43:25.574Z,49.80
2018-06-12T11:45:19.675Z,45.65
2018-06-12T11:46:19.678Z,45.90
2018-06-12T11:48:13.791Z,54.20
2018-06-12T11:49:13.778Z,59.08
2018-06-12T11:51:07.891Z,41.99
2018-06-12T11:52:07.871Z,57.86
2018-06-12T11:54:01.963Z,46.14
2018-06-12T11:55:01.956Z,57.62
2018-06-12T11:56:56.071Z,45.17
2018-06-12T11:57:56.065Z,52.00
2018-06-12T11:59:50.142Z,60.06
2018-06-12T12:00:50.149Z,61.28
2018-06-12T12:02:44.729Z,53.96
2018-06-12T12:03:44.736Z,58.35
2018-06-12T12:05:38.824Z,56.40
2018-06-12T12:06:38.823Z,60.79
2018-06-12T12:08:32.922Z,57.37
2018-06-12T12:09:32.906Z,61.52
2018-06-12T12:11:27.020Z,61.28
2018-06-12T12:12:26.997Z,61.28
2018-06-12T12:14:21.080Z,73.00
2018-06-12T12:15:21.085Z,58.35
2018-06-12T12:17:15.279Z,57.13
2018-06-12T12:18:15.180Z,55.42
2018-06-12T12:20:09.283Z,55.91
2018-06-12T12:21:09.287Z,57.37
2018-06-12T12:23:03.400Z,49.80
2018-06-12T12:24:03.391Z,52.73
2018-06-12T12:25:57.476Z,68.60
2018-06-12T12:26:57.480Z,59.57
2018-06-12T12:28:51.593Z,49.07
2018-06-12T12:29:51.636Z,47.36
2018-06-12T12:31:46.160Z,59.08
2018-06-12T12:32:46.157Z,54.69
2018-06-12T12:34:40.756Z,49.07
2018-06-12T12:35:40.745Z,58.84
2018-06-12T12:37:35.000Z,49.07
2018-06-12T12:38:34.983Z,44.68
2018-06-12T12:40:29.092Z,59.08
2018-06-12T12:41:29.090Z,41.99
2018-06-12T12:43:23.205Z,49.32
2018-06-12T12:44:23.173Z,59.33
2018-06-12T12:46:17.258Z,56.64
2018-06-12T12:47:17.280Z,46.39
2018-06-12T12:49:11.360Z,61.52
2018-06-12T12:50:11.343Z,46.14
2018-06-12T12:52:05.423Z,53.96
2018-06-12T12:53:05.474Z,58.11
2018-06-12T12:54:59.519Z,41.75
2018-06-12T12:55:59.526Z,61.28
2018-06-12T12:57:53.603Z,66.41
2018-06-12T12:58:53.591Z,58.35
2018-06-12T13:00:48.639Z,58.35
2018-06-12T13:01:48.647Z,61.04
2018-06-12T13:03:42.746Z,52.98
2018-06-12T13:04:42.749Z,50.54
2018-06-12T13:06:36.828Z,51.03
2018-06-12T13:07:36.832Z,56.15
2018-06-12T13:09:30.924Z,51.27
2018-06-12T13:10:30.920Z,52.49
2018-06-12T13:12:25.106Z,51.51
2018-06-12T13:13:25.114Z,45.90
2018-06-12T13:15:19.206Z,62.50
2018-06-12T13:16:19.189Z,61.28
2018-06-12T13:18:13.297Z,49.56
2018-06-12T13:19:13.305Z,48.58
2018-06-12T13:21:07.371Z,52.00
2018-06-12T13:22:07.387Z,60.30
2018-06-12T13:24:01.470Z,43.46
2018-06-12T13:25:01.478Z,52.49
2018-06-12T13:26:55.548Z,55.18
2018-06-12T13:27:55.568Z,70.31
2018-06-12T13:29:49.662Z,50.78
2018-06-12T13:30:49.633Z,43.46
2018-06-12T13:32:43.711Z,56.15
2018-06-12T13:33:43.778Z,50.05
2018-06-12T13:35:37.806Z,49.07
2018-06-12T13:36:37.805Z,54.44
2018-06-12T13:38:31.899Z,52.49
2018-06-12T13:39:31.958Z,49.56
2018-06-12T13:41:25.991Z,55.18
2018-06-12T13:42:26.041Z,51.03
2018-06-12T13:44:20.103Z,49.56
2018-06-12T13:45:20.073Z,55.91
2018-06-12T13:47:14.153Z,59.81
2018-06-12T13:48:14.161Z,56.88
2018-06-12T13:50:08.259Z,43.46
2018-06-12T13:51:08.241Z,48.10
2018-06-12T13:53:02.403Z,51.27
2018-06-12T13:54:02.329Z,48.83
2018-06-12T13:55:56.432Z,49.07
2018-06-12T13:56:56.418Z,61.04
2018-06-12T13:58:50.508Z,52.49
2018-06-12T13:59:50.529Z,63.96
2018-06-12T14:01:44.620Z,52.00
2018-06-12T14:02:44.596Z,62.01
2018-06-12T14:04:38.710Z,48.83
2018-06-12T14:05:38.685Z,49.80
2018-06-12T14:07:32.789Z,58.35
2018-06-12T14:08:32.783Z,57.13
2018-06-12T14:10:26.862Z,54.93
2018-06-12T14:11:26.892Z,55.91
2018-06-12T14:13:20.950Z,53.96
2018-06-12T14:14:20.917Z,47.12
2018-06-12T14:16:15.003Z,42.97
2018-06-12T14:17:15.011Z,42.24
2018-06-12T14:19:09.087Z,62.50
2018-06-12T14:20:09.093Z,47.12
2018-06-12T14:22:03.256Z,44.68
2018-06-12T14:23:03.200Z,48.10
2018-06-12T14:24:57.281Z,54.44
2018-06-12T14:25:57.280Z,43.21
2018-06-12T14:27:51.352Z,50.05
2018-06-12T14:28:51.365Z,51.51
2018-06-12T14:30:45.472Z,50.54
2018-06-12T14:31:45.445Z,43.21
2018-06-12T14:33:39.517Z,38.57
2018-06-12T14:34:39.522Z,41.75
2018-06-12T14:36:33.624Z,53.71
2018-06-12T14:37:33.597Z,55.42
2018-06-12T14:39:28.675Z,48.58
2018-06-12T14:40:28.689Z,51.51
2018-06-12T14:42:22.775Z,44.19
2018-06-12T14:43:22.756Z,52.49
2018-06-12T14:45:16.840Z,56.88
2018-06-12T14:46:16.853Z,50.05
2018-06-12T14:48:10.951Z,53.22
2018-06-12T14:49:10.930Z,55.66
2018-06-12T14:51:05.036Z,44.92
2018-06-12T14:52:05.058Z,52.98
2018-06-12T14:53:59.235Z,55.42
2018-06-12T14:54:59.220Z,65.92
2018-06-12T14:56:53.402Z,53.96
2018-06-12T14:57:53.310Z,54.44
2018-06-12T14:59:47.370Z,49.80
2018-06-12T15:00:47.369Z,45.17